Observation data for Memphis on 02/15/2018      Previous  Date  Next       Current Mesonet Observations  Soil Data  Daily Summary Page  Observations in Plain Language
KMES 150600Z 32001KT 13/M01 A2993 RMK A01 T01311005  RH  040%=      5-min Rain = 0
KMES 150605Z 32001KT 13/M01 A2993 RMK A01 T01311010  RH  038%=      5-min Rain = 0
KMES 150610Z 32003KT 13/M02 A2993 RMK A01 T01271017  RH  037%=      5-min Rain = 0
KMES 150615Z 31002KT 13/M01 A2993 RMK A01 T01261012  RH  039%=      5-min Rain = 0
KMES 150620Z 21003KT 13/M01 A2993 RMK A01 T01281008  RH  039%=      5-min Rain = 0
KMES 150625Z 22005KT 13/00 A2992 RMK A01 T01330001  RH  041%=      5-min Rain = 0
KMES 150630Z 20007KT 15/01 A2993 RMK A01 T01540007  RH  037%=      5-min Rain = 0
KMES 150635Z 21007KT 16/01 A2993 RMK A01 T01630006  RH  035%=      5-min Rain = 0
KMES 150640Z 24007KT 16/01 A2992 RMK A01 T01640009  RH  035%=      5-min Rain = 0
KMES 150645Z 25005KT 17/01 A2992 RMK A01 T01690008  RH  034%=      5-min Rain = 0
KMES 150650Z 21005KT 17/01 A2993 RMK A01 T01700008  RH  034%=      5-min Rain = 0
KMES 150655Z 19006KT 17/01 A2993 RMK A01 T01690009  RH  034%=      5-min Rain = 0
KMES 150700Z 20006KT 17/01 A2992 RMK A01 T01680010  RH  035%=      5-min Rain = 0
KMES 150705Z 20005KT 17/01 A2992 RMK A01 T01650010  RH  035%=      5-min Rain = 0
KMES 150710Z 20007KT 17/01 A2993 RMK A01 T01660013  RH  036%=      5-min Rain = 0
KMES 150715Z 21007KT 17/02 A2993 RMK A01 T01690018  RH  036%=      5-min Rain = 0
KMES 150720Z 22009KT 17/02 A2993 RMK A01 T01740021  RH  036%=      5-min Rain = 0
KMES 150725Z 22009KT 17/02 A2993 RMK A01 T01740021  RH  036%=      5-min Rain = 0
KMES 150730Z 22009KT 17/02 A2993 RMK A01 T01710021  RH  037%=      5-min Rain = 0
KMES 150735Z 22009KT 17/02 A2993 RMK A01 T01680022  RH  038%=      5-min Rain = 0
KMES 150740Z 22008KT 17/02 A2993 RMK A01 T01670024  RH  039%=      5-min Rain = 0
KMES 150745Z 21008KT 17/03 A2993 RMK A01 T01660025  RH  039%=      5-min Rain = 0
KMES 150750Z 22007KT 16/03 A2993 RMK A01 T01640027  RH  040%=      5-min Rain = 0
KMES 150755Z 22007KT 16/03 A2993 RMK A01 T01610028  RH  041%=      5-min Rain = 0
KMES 150800Z 23006KT 16/03 A2993 RMK A01 T01590028  RH  042%=      5-min Rain = 0
KMES 150805Z 23006KT 16/03 A2993 RMK A01 T01580029  RH  042%=      5-min Rain = 0
KMES 150810Z 23006KT 16/03 A2993 RMK A01 T01580030  RH  043%=      5-min Rain = 0
KMES 150815Z 23006KT 16/03 A2993 RMK A01 T01570030  RH  043%=      5-min Rain = 0
KMES 150820Z 23006KT 16/03 A2993 RMK A01 T01560030  RH  043%=      5-min Rain = 0
KMES 150825Z 24005KT 16/03 A2993 RMK A01 T01550031  RH  044%=      5-min Rain = 0
KMES 150830Z 29003KT 15/02 A2993 RMK A01 T01530022  RH  042%=      5-min Rain = 0
KMES 150835Z 31003KT 14/01 A2993 RMK A01 T01400011  RH  042%=      5-min Rain = 0
KMES 150840Z 29002KT 13/01 A2993 RMK A01 T01320008  RH  043%=      5-min Rain = 0
KMES 150845Z 28002KT 13/01 A2993 RMK A01 T01270006  RH  044%=      5-min Rain = 0
KMES 150850Z 27002KT 12/01 A2993 RMK A01 T01230006  RH  045%=      5-min Rain = 0
KMES 150855Z 25001KT 12/00 A2993 RMK A01 T01190001  RH  045%=      5-min Rain = 0
KMES 150900Z 25001KT 12/M00 A2993 RMK A01 T01151001  RH  045%=      5-min Rain = 0
KMES 150905Z 26001KT 11/M00 A2992 RMK A01 T01131003  RH  045%=      5-min Rain = 0
KMES 150910Z 25002KT 11/M01 A2992 RMK A01 T01111005  RH  045%=      5-min Rain = 0
KMES 150915Z 24002KT 11/00 A2992 RMK A01 T01100000  RH  047%=      5-min Rain = 0
KMES 150920Z 25003KT 11/01 A2992 RMK A01 T01140011  RH  050%=      5-min Rain = 0
KMES 150925Z 26003KT 12/02 A2992 RMK A01 T01190017  RH  050%=      5-min Rain = 0
KMES 150930Z 24003KT 12/01 A2992 RMK A01 T01210013  RH  048%=      5-min Rain = 0
KMES 150935Z 21002KT 12/00 A2992 RMK A01 T011800-0  RH  045%=      5-min Rain = 0
KMES 150940Z 22004KT 11/01 A2991 RMK A01 T01140006  RH  048%=      5-min Rain = 0
KMES 150945Z 24005KT 12/02 A2991 RMK A01 T01210020  RH  051%=      5-min Rain = 0
KMES 150950Z 23005KT 13/02 A2991 RMK A01 T01340023  RH  048%=      5-min Rain = 0
KMES 150955Z 25005KT 14/02 A2991 RMK A01 T01390023  RH  046%=      5-min Rain = 0
KMES 151000Z 23005KT 14/02 A2991 RMK A01 T01420022  RH  045%=      5-min Rain = 0
KMES 151005Z 23005KT 14/02 A2991 RMK A01 T01430020  RH  044%=      5-min Rain = 0
KMES 151010Z 25003KT 14/02 A2991 RMK A01 T01410018  RH  044%=      5-min Rain = 0
KMES 151015Z 25004KT 14/02 A2991 RMK A01 T01390021  RH  045%=      5-min Rain = 0
KMES 151020Z 25005KT 14/02 A2991 RMK A01 T01440019  RH  043%=      5-min Rain = 0
KMES 151025Z 24006KT 15/02 A2991 RMK A01 T01450018  RH  043%=      5-min Rain = 0
KMES 151030Z 24006KT 14/02 A2991 RMK A01 T01440017  RH  043%=      5-min Rain = 0
KMES 151035Z 24005KT 14/02 A2991 RMK A01 T01430016  RH  043%=      5-min Rain = 0
KMES 151040Z 23004KT 14/02 A2991 RMK A01 T01400015  RH  043%=      5-min Rain = 0
KMES 151045Z 21003KT 14/02 A299 RMK A01 T01360016  RH  044%=      5-min Rain = 0
KMES 151050Z 23005KT 14/02 A299 RMK A01 T01350016  RH  045%=      5-min Rain = 0
KMES 151055Z 23006KT 14/02 A299 RMK A01 T01360016  RH  045%=      5-min Rain = 0
KMES 151100Z 25005KT 14/02 A299 RMK A01 T01400017  RH  044%=      5-min Rain = 0
KMES 151105Z 25004KT 14/02 A299 RMK A01 T01430016  RH  043%=      5-min Rain = 0
KMES 151110Z 26003KT 14/02 A299 RMK A01 T01430016  RH  042%=      5-min Rain = 0
KMES 151115Z 25003KT 14/01 A299 RMK A01 T01390013  RH  043%=      5-min Rain = 0
KMES 151120Z 26002KT 13/01 A299 RMK A01 T01330006  RH  042%=      5-min Rain = 0
KMES 151125Z 27002KT 12/M00 A299 RMK A01 T01151003  RH  045%=      5-min Rain = 0
KMES 151130Z 26002KT 11/00 A299 RMK A01 T01090000  RH  047%=      5-min Rain = 0
KMES 151135Z 25003KT 11/00 A299 RMK A01 T01110004  RH  048%=      5-min Rain = 0
KMES 151140Z 23004KT 11/00 A299 RMK A01 T01110000  RH  047%=      5-min Rain = 0
KMES 151145Z 25003KT 11/M01 A299 RMK A01 T01061005  RH  047%=      5-min Rain = 0
KMES 151150Z 25003KT 11/00 A299 RMK A01 T01050002  RH  049%=      5-min Rain = 0
KMES 151155Z 28003KT 10/M00 A299 RMK A01 T01031004  RH  048%=      5-min Rain = 0
KMES 151200Z 29002KT 10/00 A299 RMK A01 T01020002  RH  050%=      5-min Rain = 0
KMES 151205Z 27001KT 10/M01 A299 RMK A01 T01001006  RH  048%=      5-min Rain = 0
KMES 151210Z 31002KT 09/M01 A299 RMK A01 T00941009  RH  049%=      5-min Rain = 0
KMES 151215Z 32003KT 09/M01 A299 RMK A01 T00921013  RH  048%=      5-min Rain = 0
KMES 151220Z 33002KT 09/M01 A299 RMK A01 T00911012  RH  049%=      5-min Rain = 0
KMES 151225Z 31001KT 09/M01 A299 RMK A01 T00921006  RH  051%=      5-min Rain = 0
KMES 151230Z 31000KT 09/M01 A299 RMK A01 T00921009  RH  050%=      5-min Rain = 0
KMES 151235Z 00000KT 09/M00 A299 RMK A01 T00911004  RH  052%=      5-min Rain = 0
KMES 151240Z 31000KT 09/M00 A299 RMK A01 T00921002  RH  052%=      5-min Rain = 0
KMES 151245Z 34000KT 09/M01 A299 RMK A01 T00901012  RH  049%=      5-min Rain = 0
KMES 151250Z 06001KT 08/M02 A299 RMK A01 T00841016  RH  050%=      5-min Rain = 0
KMES 151255Z 11002KT 08/M01 A299 RMK A01 T00821012  RH  052%=      5-min Rain = 0
KMES 151300Z 12001KT 08/M01 A299 RMK A01 T00821009  RH  053%=      5-min Rain = 0
KMES 151305Z 13000KT 08/M00 A2991 RMK A01 T00841002  RH  055%=      5-min Rain = 0
KMES 151310Z 13000KT 09/M00 A2991 RMK A01 T00861002  RH  055%=      5-min Rain = 0
KMES 151315Z 13001KT 08/M00 A2991 RMK A01 T00841003  RH  055%=      5-min Rain = 0
KMES 151320Z 14001KT 08/M00 A2991 RMK A01 T00841003  RH  055%=      5-min Rain = 0
KMES 151325Z 16002KT 09/00 A2991 RMK A01 T00900004  RH  056%=      5-min Rain = 0
KMES 151330Z 27001KT 08/M01 A2992 RMK A01 T00821011  RH  053%=      5-min Rain = 0
KMES 151335Z 28000KT 07/M02 A2992 RMK A01 T00741017  RH  053%=      5-min Rain = 0
KMES 151340Z 32000KT 07/M02 A2992 RMK A01 T00691024  RH  052%=      5-min Rain = 0
KMES 151345Z 34003KT 07/M02 A2992 RMK A01 T00651024  RH  054%=      5-min Rain = 0
KMES 151350Z 34001KT 07/M02 A2993 RMK A01 T00651017  RH  057%=      5-min Rain = 0
KMES 151355Z 35002KT 07/M01 A2993 RMK A01 T00691011  RH  057%=      5-min Rain = 0
KMES 151400Z 00001KT 07/M01 A2993 RMK A01 T00721012  RH  056%=      5-min Rain = 0
KMES 151405Z 00000KT 07/M01 A2993 RMK A01 T00741011  RH  055%=      5-min Rain = 0
KMES 151410Z 00000KT 07/M01 A2993 RMK A01 T00741013  RH  055%=      5-min Rain = 0
KMES 151415Z 34001KT 07/M02 A2993 RMK A01 T00731017  RH  053%=      5-min Rain = 0
KMES 151420Z 34001KT 08/M01 A2993 RMK A01 T00751012  RH  055%=      5-min Rain = 0
KMES 151425Z 34002KT 08/M01 A2993 RMK A01 T00781011  RH  054%=      5-min Rain = 0
KMES 151430Z 34001KT 08/00 A2993 RMK A01 T008300-0  RH  056%=      5-min Rain = 0
KMES 151435Z 01001KT 09/M01 A2993 RMK A01 T00861009  RH  052%=      5-min Rain = 0
KMES 151440Z 04001KT 09/M01 A2993 RMK A01 T00891009  RH  051%=      5-min Rain = 0
KMES 151445Z 06001KT 09/M01 A2993 RMK A01 T00921005  RH  051%=      5-min Rain = 0
KMES 151450Z 05001KT 10/00 A2993 RMK A01 T00970001  RH  052%=      5-min Rain = 0
KMES 151455Z 05001KT 10/00 A2993 RMK A01 T01010004  RH  052%=      5-min Rain = 0
KMES 151500Z 05001KT 11/01 A2993 RMK A01 T01060008  RH  051%=      5-min Rain = 0
KMES 151505Z 05000KT 11/01 A2993 RMK A01 T01110010  RH  050%=      5-min Rain = 0
KMES 151510Z 15001KT 12/01 A2993 RMK A01 T01160013  RH  050%=      5-min Rain = 0
KMES 151515Z 24001KT 12/01 A2994 RMK A01 T01200013  RH  048%=      5-min Rain = 0
KMES 151520Z 31001KT 12/02 A2994 RMK A01 T01220016  RH  049%=      5-min Rain = 0
KMES 151525Z 00000KT 13/02 A2994 RMK A01 T01260016  RH  048%=      5-min Rain = 0
KMES 151530Z 21001KT 13/02 A2994 RMK A01 T01310019  RH  047%=      5-min Rain = 0
KMES 151535Z 23002KT 14/02 A2994 RMK A01 T01350020  RH  046%=      5-min Rain = 0
KMES 151540Z 23003KT 14/02 A2994 RMK A01 T01390022  RH  046%=      5-min Rain = 0
KMES 151545Z 22004KT 15/03 A2995 RMK A01 T01470026  RH  044%=      5-min Rain = 0
KMES 151550Z 22005KT 16/03 A2995 RMK A01 T01550030  RH  044%=      5-min Rain = 0
KMES 151555Z 21006KT 16/03 A2994 RMK A01 T01630032  RH  042%=      5-min Rain = 0
KMES 151600Z 22006KT 17/03 A2994 RMK A01 T01680032  RH  041%=      5-min Rain = 0
KMES 151605Z 22007KT 17/03 A2994 RMK A01 T01710031  RH  040%=      5-min Rain = 0
KMES 151610Z 22008KT 17/03 A2994 RMK A01 T01710030  RH  040%=      5-min Rain = 0
KMES 151615Z 23009KT 17/03 A2994 RMK A01 T01710030  RH  039%=      5-min Rain = 0
KMES 151620Z 23009KT 17/03 A2994 RMK A01 T01710030  RH  039%=      5-min Rain = 0
KMES 151625Z 22007KT 17/03 A2995 RMK A01 T01730031  RH  039%=      5-min Rain = 0
KMES 151630Z 23008KT 17/03 A2995 RMK A01 T01740031  RH  039%=      5-min Rain = 0
KMES 151635Z 23009KT 17/03 A2995 RMK A01 T01740032  RH  039%=      5-min Rain = 0
KMES 151640Z 23009KT 18/03 A2995 RMK A01 T01760034  RH  039%=      5-min Rain = 0
KMES 151645Z 23008KT 18/04 A2995 RMK A01 T01770035  RH  039%=      5-min Rain = 0
KMES 151650Z 22008KT 18/04 A2995 RMK A01 T01790037  RH  039%=      5-min Rain = 0
KMES 151655Z 23006KT 18/04 A2995 RMK A01 T01810038  RH  039%=      5-min Rain = 0
KMES 151700Z 24008KT 18/04 A2995 RMK A01 T01820041  RH  040%=      5-min Rain = 0
KMES 151705Z 23007KT 18/04 A2995 RMK A01 T01820044  RH  040%=      5-min Rain = 0
KMES 151710Z 22006KT 18/04 A2995 RMK A01 T01830044  RH  040%=      5-min Rain = 0
KMES 151715Z 24007KT 18/04 A2995 RMK A01 T01830043  RH  040%=      5-min Rain = 0
KMES 151720Z 22006KT 19/04 A2994 RMK A01 T01850044  RH  040%=      5-min Rain = 0
KMES 151725Z 23007KT 19/04 A2995 RMK A01 T01880043  RH  039%=      5-min Rain = 0
KMES 151730Z 24007KT 19/05 A2994 RMK A01 T01910045  RH  039%=      5-min Rain = 0
KMES 151735Z 25007KT 19/05 A2994 RMK A01 T01940046  RH  038%=      5-min Rain = 0
KMES 151740Z 25007KT 20/05 A2994 RMK A01 T01970048  RH  038%=      5-min Rain = 0
KMES 151745Z 24009G14KT 20/05 A2994 RMK A01 T02000048  RH  037%=      5-min Rain = 0
KMES 151750Z 25009KT 20/05 A2994 RMK A01 T02010048  RH  037%=      5-min Rain = 0
KMES 151755Z 25009KT 20/05 A2994 RMK A01 T02020048  RH  037%=      5-min Rain = 0
KMES 151800Z 24008G14KT 20/05 A2994 RMK A01 T02020048  RH  037%=      5-min Rain = 0
KMES 151805Z 25009KT 20/05 A2994 RMK A01 T02040048  RH  036%=      5-min Rain = 0
KMES 151810Z 23008KT 21/05 A2994 RMK A01 T02050049  RH  036%=      5-min Rain = 0
KMES 151815Z 23008KT 21/05 A2994 RMK A01 T02100048  RH  035%=      5-min Rain = 0
KMES 151820Z 25008KT 21/05 A2993 RMK A01 T02110048  RH  035%=      5-min Rain = 0
KMES 151825Z 24009KT 21/05 A2993 RMK A01 T02120050  RH  035%=      5-min Rain = 0
KMES 151830Z 22011G16KT 21/05 A2993 RMK A01 T02140051  RH  035%=      5-min Rain = 0
KMES 151835Z 23010KT 21/05 A2993 RMK A01 T02140052  RH  035%=      5-min Rain = 0
KMES 151840Z 24010KT 21/05 A2992 RMK A01 T02140053  RH  035%=      5-min Rain = 0
KMES 151845Z 24009G14KT 22/05 A2992 RMK A01 T02170054  RH  035%=      5-min Rain = 0
KMES 151850Z 23012KT 22/05 A2991 RMK A01 T02180054  RH  035%=      5-min Rain = 0
KMES 151855Z 24011KT 22/06 A2991 RMK A01 T02200055  RH  034%=      5-min Rain = 0
KMES 151900Z 24011G16KT 22/06 A299 RMK A01 T02220055  RH  034%=      5-min Rain = 0
KMES 151905Z 26010G15KT 23/06 A299 RMK A01 T02260055  RH  033%=      5-min Rain = 0
KMES 151910Z 24012G18KT 23/06 A299 RMK A01 T02290055  RH  033%=      5-min Rain = 0
KMES 151915Z 24011G17KT 23/06 A2989 RMK A01 T02320055  RH  032%=      5-min Rain = 0
KMES 151920Z 25009G15KT 23/06 A2989 RMK A01 T02340055  RH  032%=      5-min Rain = 0
KMES 151925Z 24009KT 24/06 A2989 RMK A01 T02380056  RH  031%=      5-min Rain = 0
KMES 151930Z 24013G18KT 24/06 A2988 RMK A01 T02420055  RH  030%=      5-min Rain = 0
KMES 151935Z 24013G18KT 24/06 A2988 RMK A01 T02440056  RH  030%=      5-min Rain = 0
KMES 151940Z 25012G19KT 25/06 A2988 RMK A01 T02480057  RH  030%=      5-min Rain = 0
KMES 151945Z 24011G16KT 25/06 A2987 RMK A01 T02500057  RH  029%=      5-min Rain = 0
KMES 151950Z 24014KT 25/06 A2987 RMK A01 T02510056  RH  029%=      5-min Rain = 0
KMES 151955Z 25014G19KT 25/06 A2987 RMK A01 T02510057  RH  029%=      5-min Rain = 0
KMES 152000Z 25012G19KT 25/06 A2987 RMK A01 T02530057  RH  029%=      5-min Rain = 0
KMES 152005Z 24013G19KT 25/06 A2986 RMK A01 T02540057  RH  029%=      5-min Rain = 0
KMES 152010Z 24012G18KT 25/06 A2986 RMK A01 T02530057  RH  029%=      5-min Rain = 0
KMES 152015Z 23012G19KT 26/06 A2985 RMK A01 T02580057  RH  028%=      5-min Rain = 0
KMES 152020Z 24012G19KT 26/06 A2985 RMK A01 T02610057  RH  027%=      5-min Rain = 0
KMES 152025Z 25010G16KT 26/06 A2985 RMK A01 T02610056  RH  027%=      5-min Rain = 0
KMES 152030Z 24015G22KT 26/06 A2984 RMK A01 T02610055  RH  027%=      5-min Rain = 0
KMES 152035Z 24012G17KT 26/06 A2984 RMK A01 T02610055  RH  027%=      5-min Rain = 0
KMES 152040Z 25012G20KT 26/06 A2984 RMK A01 T02630055  RH  027%=      5-min Rain = 0
KMES 152045Z 25014G20KT 26/06 A2983 RMK A01 T02620055  RH  027%=      5-min Rain = 0
KMES 152050Z 24014G22KT 27/06 A2983 RMK A01 T02690056  RH  026%=      5-min Rain = 0
KMES 152055Z 24012G20KT 27/06 A2983 RMK A01 T02700055  RH  026%=      5-min Rain = 0
KMES 152100Z 24014G19KT 27/06 A2983 RMK A01 T02670055  RH  026%=      5-min Rain = 0
KMES 152105Z 25016G21KT 27/05 A2983 RMK A01 T02650054  RH  026%=      5-min Rain = 0
KMES 152110Z 24014G22KT 26/05 A2983 RMK A01 T02630054  RH  027%=      5-min Rain = 0
KMES 152115Z 25012G17KT 26/06 A2983 RMK A01 T02630055  RH  027%=      5-min Rain = 0
KMES 152120Z 25011KT 26/06 A2983 RMK A01 T02640055  RH  027%=      5-min Rain = 0
KMES 152125Z 25011G20KT 27/06 A2983 RMK A01 T02650055  RH  026%=      5-min Rain = 0
KMES 152130Z 24014G20KT 27/06 A2983 RMK A01 T02670055  RH  026%=      5-min Rain = 0
KMES 152135Z 25010G16KT 27/06 A2982 RMK A01 T02660055  RH  026%=      5-min Rain = 0
KMES 152140Z 27008G13KT 27/06 A2983 RMK A01 T02650055  RH  026%=      5-min Rain = 0
KMES 152145Z 27008G14KT 27/06 A2983 RMK A01 T02650055  RH  026%=      5-min Rain = 0
KMES 152150Z 27010G18KT 27/06 A2983 RMK A01 T02660056  RH  026%=      5-min Rain = 0
KMES 152155Z 27010G16KT 27/06 A2983 RMK A01 T02650056  RH  026%=      5-min Rain = 0
KMES 152200Z 26011G17KT 26/06 A2983 RMK A01 T02640055  RH  027%=      5-min Rain = 0
KMES 152205Z 27011G18KT 26/06 A2983 RMK A01 T02630055  RH  027%=      5-min Rain = 0
KMES 152210Z 26010G16KT 26/06 A2983 RMK A01 T02630055  RH  027%=      5-min Rain = 0
KMES 152215Z 27011KT 26/06 A2983 RMK A01 T02630055  RH  027%=      5-min Rain = 0
KMES 152220Z 28009G16KT 26/06 A2983 RMK A01 T02620055  RH  027%=      5-min Rain = 0
KMES 152225Z 28010KT 26/06 A2983 RMK A01 T02610055  RH  027%=      5-min Rain = 0
KMES 152230Z 27010G15KT 26/06 A2983 RMK A01 T02610056  RH  027%=      5-min Rain = 0
KMES 152235Z 26009KT 26/06 A2983 RMK A01 T02610055  RH  027%=      5-min Rain = 0
KMES 152240Z 26007G12KT 26/06 A2983 RMK A01 T02620056  RH  027%=      5-min Rain = 0
KMES 152245Z 27007G12KT 27/06 A2983 RMK A01 T02650056  RH  027%=      5-min Rain = 0
KMES 152250Z 28008G14KT 27/06 A2983 RMK A01 T02650056  RH  027%=      5-min Rain = 0
KMES 152255Z 27008KT 26/06 A2983 RMK A01 T02630056  RH  027%=      5-min Rain = 0
KMES 152300Z 26007G12KT 26/06 A2983 RMK A01 T02630056  RH  027%=      5-min Rain = 0
KMES 152305Z 25007KT 26/06 A2983 RMK A01 T02630057  RH  027%=      5-min Rain = 0
KMES 152310Z 25007KT 26/06 A2983 RMK A01 T02640057  RH  027%=      5-min Rain = 0
KMES 152315Z 25007KT 26/06 A2983 RMK A01 T02640057  RH  027%=      5-min Rain = 0
KMES 152320Z 25008KT 26/06 A2983 RMK A01 T02640057  RH  027%=      5-min Rain = 0
KMES 152325Z 25008KT 26/06 A2983 RMK A01 T02640058  RH  027%=      5-min Rain = 0
KMES 152330Z 25007KT 26/06 A2983 RMK A01 T02630058  RH  027%=      5-min Rain = 0
KMES 152335Z 26008KT 26/06 A2984 RMK A01 T02620058  RH  028%=      5-min Rain = 0
KMES 152340Z 26006KT 26/06 A2984 RMK A01 T02600058  RH  028%=      5-min Rain = 0
KMES 152345Z 26006KT 26/06 A2984 RMK A01 T02590058  RH  028%=      5-min Rain = 0
KMES 152350Z 26007KT 26/06 A2984 RMK A01 T02570057  RH  028%=      5-min Rain = 0
KMES 152355Z 26006G11KT 26/06 A2984 RMK A01 T02560057  RH  028%=      5-min Rain = 0
KMES 160000Z 26007KT 25/06 A2984 RMK A01 T02540057  RH  029%=      5-min Rain = 0
KMES 160005Z 26006KT 25/06 A2984 RMK A01 T02530057  RH  029%=      5-min Rain = 0
KMES 160010Z 25007KT 25/06 A2984 RMK A01 T02510057  RH  029%=      5-min Rain = 0
KMES 160015Z 25007KT 25/06 A2984 RMK A01 T02480057  RH  030%=      5-min Rain = 0
KMES 160020Z 25007KT 25/06 A2984 RMK A01 T02460057  RH  030%=      5-min Rain = 0
KMES 160025Z 25007KT 24/06 A2985 RMK A01 T02430056  RH  030%=      5-min Rain = 0
KMES 160030Z 25008KT 24/06 A2985 RMK A01 T02430057  RH  030%=      5-min Rain = 0
KMES 160035Z 25006KT 24/06 A2985 RMK A01 T02410057  RH  031%=      5-min Rain = 0
KMES 160040Z 26007KT 24/06 A2985 RMK A01 T02390057  RH  031%=      5-min Rain = 0
KMES 160045Z 26006KT 24/06 A2986 RMK A01 T02380056  RH  031%=      5-min Rain = 0
KMES 160050Z 26006KT 24/06 A2986 RMK A01 T02360056  RH  032%=      5-min Rain = 0
KMES 160055Z 26006KT 23/06 A2986 RMK A01 T02340056  RH  032%=      5-min Rain = 0
KMES 160100Z 26005KT 23/06 A2986 RMK A01 T02320056  RH  032%=      5-min Rain = 0
KMES 160105Z 26006KT 23/06 A2986 RMK A01 T02300055  RH  033%=      5-min Rain = 0
KMES 160110Z 26005KT 23/06 A2987 RMK A01 T02270055  RH  033%=      5-min Rain = 0
KMES 160115Z 27005KT 23/05 A2987 RMK A01 T02250054  RH  034%=      5-min Rain = 0
KMES 160120Z 27005KT 22/05 A2987 RMK A01 T02240054  RH  034%=      5-min Rain = 0
KMES 160125Z 26006KT 22/05 A2987 RMK A01 T02240054  RH  034%=      5-min Rain = 0
KMES 160130Z 26006KT 22/05 A2987 RMK A01 T02240054  RH  034%=      5-min Rain = 0
KMES 160135Z 26007KT 22/05 A2987 RMK A01 T02230054  RH  034%=      5-min Rain = 0
KMES 160140Z 26006KT 22/06 A2988 RMK A01 T02240055  RH  034%=      5-min Rain = 0
KMES 160145Z 27006KT 22/06 A2988 RMK A01 T02230055  RH  034%=      5-min Rain = 0
KMES 160150Z 27007KT 22/05 A2988 RMK A01 T02230054  RH  034%=      5-min Rain = 0
KMES 160155Z 27007KT 22/05 A2988 RMK A01 T02240054  RH  034%=      5-min Rain = 0
KMES 160200Z 26007KT 22/05 A2989 RMK A01 T02230054  RH  034%=      5-min Rain = 0
KMES 160205Z 26008KT 22/06 A2988 RMK A01 T02230055  RH  034%=      5-min Rain = 0
KMES 160210Z 25009KT 22/06 A2989 RMK A01 T02240055  RH  034%=      5-min Rain = 0
KMES 160215Z 25008KT 22/06 A2989 RMK A01 T02230055  RH  034%=      5-min Rain = 0
KMES 160220Z 25008KT 22/06 A2989 RMK A01 T02210055  RH  035%=      5-min Rain = 0
KMES 160225Z 25007KT 22/06 A2989 RMK A01 T02180056  RH  035%=      5-min Rain = 0
KMES 160230Z 26006KT 22/06 A2989 RMK A01 T02160056  RH  036%=      5-min Rain = 0
KMES 160235Z 26006KT 21/06 A299 RMK A01 T02140056  RH  036%=      5-min Rain = 0
KMES 160240Z 26006KT 21/06 A299 RMK A01 T02120056  RH  037%=      5-min Rain = 0
KMES 160245Z 26005KT 21/06 A2991 RMK A01 T02090056  RH  037%=      5-min Rain = 0
KMES 160250Z 27005KT 21/06 A2991 RMK A01 T02080057  RH  038%=      5-min Rain = 0
KMES 160255Z 27005KT 21/06 A2991 RMK A01 T02070057  RH  038%=      5-min Rain = 0
KMES 160300Z 27004KT 21/06 A2991 RMK A01 T02070058  RH  038%=      5-min Rain = 0
KMES 160305Z 27005KT 21/06 A2991 RMK A01 T02060058  RH  039%=      5-min Rain = 0
KMES 160310Z 27005KT 21/06 A2992 RMK A01 T02060059  RH  039%=      5-min Rain = 0
KMES 160315Z 27005KT 21/06 A2992 RMK A01 T02060060  RH  039%=      5-min Rain = 0
KMES 160320Z 26006KT 21/06 A2992 RMK A01 T02060060  RH  039%=      5-min Rain = 0
KMES 160325Z 26005KT 20/06 A2993 RMK A01 T02040060  RH  040%=      5-min Rain = 0
KMES 160330Z 27005KT 20/06 A2993 RMK A01 T02030061  RH  040%=      5-min Rain = 0
KMES 160335Z 28007KT 20/06 A2993 RMK A01 T02030061  RH  040%=      5-min Rain = 0
KMES 160340Z 27008G14KT 21/06 A2993 RMK A01 T02050061  RH  040%=      5-min Rain = 0
KMES 160345Z 27009G14KT 21/06 A2993 RMK A01 T02080060  RH  039%=      5-min Rain = 0
KMES 160350Z 27009KT 21/06 A2994 RMK A01 T02080059  RH  038%=      5-min Rain = 0
KMES 160355Z 27008KT 21/06 A2995 RMK A01 T02070059  RH  038%=      5-min Rain = 0
KMES 160400Z 27007G12KT 21/06 A2995 RMK A01 T02070058  RH  039%=      5-min Rain = 0
KMES 160405Z 26009G14KT 21/06 A2995 RMK A01 T02060058  RH  038%=      5-min Rain = 0
KMES 160410Z 26011KT 21/06 A2995 RMK A01 T02060056  RH  038%=      5-min Rain = 0
KMES 160415Z 26010G15KT 21/06 A2995 RMK A01 T02060055  RH  038%=      5-min Rain = 0
KMES 160420Z 26010G17KT 21/05 A2995 RMK A01 T02050054  RH  038%=      5-min Rain = 0
KMES 160425Z 26010G16KT 20/05 A2996 RMK A01 T02040052  RH  037%=      5-min Rain = 0
KMES 160430Z 27010G15KT 20/05 A2996 RMK A01 T02040051  RH  037%=      5-min Rain = 0
KMES 160435Z 27009G14KT 20/05 A2997 RMK A01 T02040050  RH  037%=      5-min Rain = 0
KMES 160440Z 27009KT 20/05 A2997 RMK A01 T02030049  RH  037%=      5-min Rain = 0
KMES 160445Z 27009G15KT 20/05 A2997 RMK A01 T02030048  RH  037%=      5-min Rain = 0
KMES 160450Z 27008G13KT 20/05 A2998 RMK A01 T02020047  RH  037%=      5-min Rain = 0
KMES 160455Z 27009G15KT 20/05 A2998 RMK A01 T02020046  RH  036%=      5-min Rain = 0
KMES 160500Z 28008G13KT 20/04 A2998 RMK A01 T02010044  RH  036%=      5-min Rain = 0
KMES 160505Z 29009G14KT 20/04 A2998 RMK A01 T02010043  RH  036%=      5-min Rain = 0
KMES 160510Z 29008KT 20/04 A2999 RMK A01 T02010042  RH  036%=      5-min Rain = 0
KMES 160515Z 29009KT 20/04 A2999 RMK A01 T01990042  RH  036%=      5-min Rain = 0
KMES 160520Z 30010KT 20/04 A2999 RMK A01 T02000041  RH  036%=      5-min Rain = 0
KMES 160525Z 29010KT 20/04 A2999 RMK A01 T01990040  RH  036%=      5-min Rain = 0
KMES 160530Z 29011G17KT 20/04 A2999 RMK A01 T01990037  RH  035%=      5-min Rain = 0
KMES 160535Z 29011G17KT 20/03 A2999 RMK A01 T02000032  RH  033%=      5-min Rain = 0
KMES 160540Z 28013G20KT 20/03 A2999 RMK A01 T02020028  RH  032%=      5-min Rain = 0
KMES 160545Z 28014G21KT 20/02 A2999 RMK A01 T02030024  RH  031%=      5-min Rain = 0
KMES 160550Z 29015G21KT 20/02 A2999 RMK A01 T02030023  RH  031%=      5-min Rain = 0
KMES 160555Z 29015G22KT 20/02 A2999 RMK A01 T02020023  RH  031%=      5-min Rain = 0

Page generated in 0.3855 seconds.